createdAt,value
2019-03-10T00:00:52.289Z,100473.52
2019-03-10T00:03:25.204Z,100468.66
2019-03-10T00:05:56.786Z,100466.86
2019-03-10T00:08:28.135Z,100470.82
2019-03-10T00:10:59.572Z,100464.67
2019-03-10T00:13:31.048Z,100446.11
2019-03-10T00:16:02.352Z,100453.59
2019-03-10T00:18:33.692Z,100443.00
2019-03-10T00:21:05.104Z,100443.86
2019-03-10T00:23:36.415Z,100449.63
2019-03-10T00:26:08.864Z,100441.25
2019-03-10T00:28:41.116Z,100447.42
2019-03-10T00:31:13.574Z,100452.28
2019-03-10T00:33:45.061Z,100459.80
2019-03-10T00:36:16.326Z,100445.21
2019-03-10T00:38:58.315Z,100444.35
2019-03-10T00:41:40.157Z,100446.14
2019-03-10T00:44:57.721Z,100449.23
2019-03-10T00:48:00.707Z,100435.52
2019-03-10T00:50:54.880Z,100421.86
2019-03-10T00:53:26.139Z,100425.80
2019-03-10T00:55:57.446Z,100415.17
2019-03-10T00:58:28.948Z,100410.76
2019-03-10T01:01:00.393Z,100408.56
2019-03-10T01:03:31.658Z,100411.66
2019-03-10T01:06:03.152Z,100402.84
2019-03-10T01:08:34.475Z,100401.07
2019-03-10T01:11:08.008Z,100407.67
2019-03-10T01:13:39.355Z,100404.58
2019-03-10T01:16:11.039Z,100402.78
2019-03-10T01:18:42.784Z,100389.59
2019-03-10T01:21:14.673Z,100394.02
2019-03-10T01:23:45.918Z,100390.48
2019-03-10T01:26:17.381Z,100386.06
2019-03-10T01:28:48.779Z,100366.18
2019-03-10T01:31:47.469Z,100349.84
2019-03-10T01:34:56.562Z,100356.45
2019-03-10T01:37:27.937Z,100347.16
2019-03-10T01:39:59.242Z,100349.78
2019-03-10T01:42:30.558Z,100353.77
2019-03-10T01:45:02.068Z,100342.27
2019-03-10T01:47:33.542Z,100336.55
2019-03-10T01:50:06.673Z,100326.84
2019-03-10T01:52:38.001Z,100318.89
2019-03-10T01:55:11.686Z,100321.09
2019-03-10T01:57:43.075Z,100311.38
2019-03-10T02:00:17.449Z,100305.19
2019-03-10T02:02:48.817Z,100293.27
2019-03-10T02:05:20.292Z,100296.33
2019-03-10T02:07:51.802Z,100285.73
2019-03-10T02:10:23.150Z,100275.59
2019-03-10T02:12:54.639Z,100260.59
2019-03-10T02:15:25.946Z,100254.44
2019-03-10T02:17:57.256Z,100258.40
2019-03-10T02:20:28.758Z,100250.00
2019-03-10T02:23:00.174Z,100242.94
2019-03-10T02:25:31.519Z,100228.81
2019-03-10T02:28:02.840Z,100216.02
2019-03-10T02:30:34.064Z,100199.69
2019-03-10T02:33:08.131Z,100178.95
2019-03-10T02:35:39.442Z,100160.88
2019-03-10T02:38:10.745Z,100122.07
2019-03-10T02:40:43.473Z,100123.39
2019-03-10T02:43:15.033Z,100110.16
2019-03-10T02:45:46.339Z,100089.88
2019-03-10T02:48:17.635Z,100100.44
2019-03-10T02:50:48.883Z,100114.94
2019-03-10T02:53:20.213Z,100126.83
2019-03-10T02:55:51.427Z,100131.22
2019-03-10T02:58:22.785Z,100133.84
2019-03-10T03:00:54.049Z,100133.42
2019-03-10T03:03:25.477Z,100123.28
2019-03-10T03:05:56.891Z,100116.66
2019-03-10T03:08:28.233Z,100101.17
2019-03-10T03:10:59.519Z,100103.36
2019-03-10T03:13:30.772Z,100081.31
2019-03-10T03:16:03.197Z,100072.51
2019-03-10T03:18:46.875Z,100061.94
2019-03-10T03:21:18.166Z,100064.13
2019-03-10T03:23:49.404Z,100042.53
2019-03-10T03:26:20.753Z,100037.20
2019-03-10T03:28:52.065Z,100038.50
2019-03-10T03:31:23.405Z,100036.73
2019-03-10T03:33:54.646Z,100038.49
2019-03-10T03:36:30.148Z,100027.48
2019-03-10T03:39:24.258Z,100013.81
2019-03-10T03:41:56.048Z,100015.56
2019-03-10T03:44:28.942Z,100015.05
2019-03-10T03:47:00.286Z,100007.09
2019-03-10T03:49:32.709Z,99993.41
2019-03-10T03:52:03.999Z,99982.85
2019-03-10T03:54:36.314Z,99980.19
2019-03-10T03:57:07.686Z,99969.62
2019-03-10T03:59:40.089Z,99957.30
2019-03-10T04:02:12.992Z,99944.53
2019-03-10T04:04:44.402Z,99942.77
2019-03-10T04:07:15.700Z,99933.48
2019-03-10T04:09:47.077Z,99939.63
2019-03-10T04:12:18.294Z,99925.97
2019-03-10T04:14:49.627Z,99926.83
2019-03-10T04:17:22.492Z,99922.85
2019-03-10T04:19:53.755Z,99914.46
2019-03-10T04:22:25.119Z,99913.56
2019-03-10T04:24:56.389Z,99903.45
2019-03-10T04:27:30.260Z,99894.64
2019-03-10T04:30:01.616Z,99882.30
2019-03-10T04:32:34.235Z,99881.42
2019-03-10T04:35:07.423Z,99878.75
2019-03-10T04:37:38.648Z,99878.31
2019-03-10T04:40:10.126Z,99871.27
2019-03-10T04:42:41.422Z,99851.94
2019-03-10T04:45:12.935Z,99845.34
2019-03-10T04:47:44.154Z,99837.42
2019-03-10T04:50:16.433Z,99818.06
2019-03-10T04:52:47.833Z,99810.58
2019-03-10T04:55:23.338Z,99807.05
2019-03-10T04:57:59.109Z,99804.85
2019-03-10T05:00:31.331Z,99804.84
2019-03-10T05:03:02.560Z,99802.20
2019-03-10T05:05:33.965Z,99792.53
2019-03-10T05:08:05.237Z,99776.66
2019-03-10T05:10:36.567Z,99755.55
2019-03-10T05:13:07.808Z,99743.67
2019-03-10T05:15:40.354Z,99734.86
2019-03-10T05:18:11.591Z,99728.70
2019-03-10T05:20:42.955Z,99726.92
2019-03-10T05:23:36.014Z,99729.55
2019-03-10T05:26:07.527Z,99733.94
2019-03-10T05:28:44.986Z,99726.89
2019-03-10T05:31:16.489Z,99720.30
2019-03-10T05:33:47.713Z,99713.25
2019-03-10T05:36:19.215Z,99704.45
2019-03-10T05:38:50.589Z,99700.50
2019-03-10T05:41:22.993Z,99703.55
2019-03-10T05:43:54.336Z,99690.37
2019-03-10T05:46:25.549Z,99688.17
2019-03-10T05:48:57.771Z,99684.63
2019-03-10T05:51:29.073Z,99669.25
2019-03-10T05:54:00.345Z,99639.37
2019-03-10T05:56:33.639Z,99655.17
2019-03-10T05:59:05.152Z,99647.25
2019-03-10T06:01:36.388Z,99636.70
2019-03-10T06:04:07.734Z,99626.15
2019-03-10T06:06:43.113Z,99627.02
2019-03-10T06:09:14.429Z,99636.69
2019-03-10T06:11:45.654Z,99628.77
2019-03-10T06:14:16.874Z,99613.38
2019-03-10T06:16:48.155Z,99620.40
2019-03-10T06:19:19.361Z,99610.30
2019-03-10T06:21:50.661Z,99594.48
2019-03-10T06:24:22.106Z,99586.12
2019-03-10T06:26:53.407Z,99590.52
2019-03-10T06:29:24.684Z,99583.04
2019-03-10T06:31:55.898Z,99577.77
2019-03-10T06:34:27.213Z,99566.80
2019-03-10T06:36:58.615Z,99559.33
2019-03-10T06:39:29.877Z,99544.41
2019-03-10T06:42:01.095Z,99545.28
2019-03-10T06:44:32.380Z,99535.20
2019-03-10T06:47:04.638Z,99533.89
2019-03-10T06:49:35.978Z,99525.55
2019-03-10T06:52:07.430Z,99521.61
2019-03-10T06:54:38.656Z,99514.58
2019-03-10T06:57:10.206Z,99515.91
2019-03-10T06:59:41.421Z,99519.42
2019-03-10T07:02:12.693Z,99520.31
2019-03-10T07:04:43.978Z,99503.63
2019-03-10T07:07:15.309Z,99503.64
2019-03-10T07:09:46.527Z,99494.42
2019-03-10T07:12:18.153Z,99501.45
2019-03-10T07:14:49.368Z,99497.06
2019-03-10T07:17:20.641Z,99493.16
2019-03-10T07:19:51.865Z,99469.16
2019-03-10T07:22:23.288Z,99466.52
2019-03-10T07:24:54.588Z,99457.49
2019-03-10T07:27:27.689Z,99449.42
2019-03-10T07:30:00.615Z,99428.00
2019-03-10T07:32:42.774Z,99424.31
2019-03-10T07:35:20.470Z,99423.35
2019-03-10T07:38:04.896Z,99412.22
2019-03-10T07:40:53.011Z,99413.81
2019-03-10T07:43:37.941Z,99430.06
2019-03-10T07:46:14.268Z,99410.53
2019-03-10T07:48:48.485Z,99414.76
2019-03-10T07:51:21.375Z,99407.21
2019-03-10T07:53:56.400Z,99393.47
2019-03-10T07:56:35.422Z,99410.13
2019-03-10T07:59:08.475Z,99398.67
2019-03-10T08:01:56.285Z,99391.08
2019-03-10T08:04:33.775Z,99402.89
2019-03-10T08:07:12.484Z,99382.45
2019-03-10T08:09:50.908Z,99384.58
2019-03-10T08:12:21.977Z,99395.14
2019-03-10T08:14:57.632Z,99387.63
2019-03-10T08:17:33.276Z,99393.27
2019-03-10T08:20:13.297Z,99391.39
2019-03-10T08:22:49.195Z,99386.22
2019-03-10T08:25:22.797Z,99371.38
2019-03-10T08:28:01.671Z,99380.90
2019-03-10T08:30:39.366Z,99388.83
2019-03-10T08:33:10.412Z,99380.33
2019-03-10T08:35:41.415Z,99376.59
2019-03-10T08:38:31.716Z,99380.39
2019-03-10T08:41:10.170Z,99393.59
2019-03-10T08:44:00.389Z,99385.16
2019-03-10T08:46:36.406Z,99400.59
2019-03-10T08:49:09.328Z,99397.32
2019-03-10T08:51:58.557Z,99362.78
2019-03-10T08:54:32.845Z,99370.23
2019-03-10T08:57:05.989Z,99373.16
2019-03-10T08:59:57.171Z,99377.17
2019-03-10T09:02:37.218Z,99375.65
2019-03-10T09:05:14.819Z,99352.79
2019-03-10T09:07:50.442Z,99359.79
2019-03-10T09:10:34.999Z,99334.08
2019-03-10T09:13:08.008Z,99331.88
2019-03-10T09:15:52.919Z,99365.45
2019-03-10T09:18:25.804Z,99338.97
2019-03-10T09:21:04.792Z,99322.11
2019-03-10T09:23:38.803Z,99344.58
2019-03-10T09:26:16.703Z,99336.03
2019-03-10T09:29:06.881Z,99348.49
2019-03-10T09:31:39.782Z,99336.98
2019-03-10T09:34:24.938Z,99338.17
2019-03-10T09:37:03.680Z,99336.00
2019-03-10T09:39:39.286Z,99330.75
2019-03-10T09:42:28.009Z,99321.77
2019-03-10T09:45:00.952Z,99321.81
2019-03-10T09:47:39.811Z,99317.86
2019-03-10T09:50:24.459Z,99349.48
2019-03-10T09:52:57.430Z,99301.05
2019-03-10T09:55:35.946Z,99272.92
2019-03-10T09:58:29.548Z,99310.78
2019-03-10T10:01:02.501Z,99289.16
2019-03-10T10:03:35.705Z,99291.11
2019-03-10T10:06:08.969Z,99282.70
2019-03-10T10:09:00.712Z,99282.70
2019-03-10T10:11:33.353Z,99258.87
2019-03-10T10:14:04.367Z,99288.47
2019-03-10T10:17:03.169Z,99327.36
2019-03-10T10:19:36.216Z,99310.33
2019-03-10T10:22:20.196Z,99285.59
2019-03-10T10:24:57.241Z,99288.78
2019-03-10T10:27:42.320Z,99296.30
2019-03-10T10:30:18.661Z,99290.64
2019-03-10T10:33:08.275Z,99294.33
2019-03-10T10:35:41.302Z,99262.05
2019-03-10T10:38:30.552Z,99269.78
2019-03-10T10:41:06.525Z,99302.53
2019-03-10T10:43:40.301Z,99343.30
2019-03-10T10:46:17.088Z,99316.83
2019-03-10T10:48:50.076Z,99322.39
2019-03-10T10:51:41.447Z,99320.36
2019-03-10T10:54:15.451Z,99357.05
2019-03-10T10:56:53.808Z,99318.07
2019-03-10T10:59:29.476Z,99346.23
2019-03-10T11:02:04.718Z,99330.12
2019-03-10T11:04:55.315Z,99330.00
2019-03-10T11:07:44.833Z,99322.87
2019-03-10T11:10:20.791Z,99320.41
2019-03-10T11:13:10.250Z,99292.89
2019-03-10T11:15:50.639Z,99313.16
2019-03-10T11:18:33.497Z,99304.21
2019-03-10T11:21:15.999Z,99310.59
2019-03-10T11:24:05.405Z,99340.48
2019-03-10T11:26:44.466Z,99315.05
2019-03-10T11:29:31.399Z,99289.98
2019-03-10T11:32:13.954Z,99304.47
2019-03-10T11:34:50.949Z,99283.06
2019-03-10T11:37:24.665Z,99297.12
2019-03-10T11:39:55.776Z,99264.77
2019-03-10T11:42:41.954Z,99273.84
2019-03-10T11:45:21.107Z,99255.47
2019-03-10T11:48:09.611Z,99275.95
2019-03-10T11:50:46.575Z,99285.22
2019-03-10T11:53:25.784Z,99275.94
2019-03-10T11:56:07.344Z,99298.30
2019-03-10T11:58:49.152Z,99292.17
2019-03-10T12:01:24.646Z,99260.72
2019-03-10T12:04:14.286Z,99277.39
2019-03-10T12:06:47.435Z,99291.03
2019-03-10T12:09:24.488Z,99294.80
2019-03-10T12:11:55.854Z,99275.11
2019-03-10T12:14:27.281Z,99362.21
2019-03-10T12:16:58.646Z,99258.87
2019-03-10T12:19:30.340Z,99241.49
2019-03-10T12:22:01.851Z,99239.96
2019-03-10T12:24:33.441Z,99272.02
2019-03-10T12:27:04.838Z,99254.64
2019-03-10T12:29:36.347Z,99257.89
2019-03-10T12:32:08.798Z,99249.27
2019-03-10T12:34:40.118Z,99264.03
2019-03-10T12:37:11.361Z,99244.94
2019-03-10T12:39:42.839Z,99253.95
2019-03-10T12:42:14.192Z,99257.11
2019-03-10T12:44:45.754Z,99261.77
2019-03-10T12:47:17.364Z,99250.67
2019-03-10T12:49:48.654Z,99266.77
2019-03-10T12:52:19.926Z,99243.53
2019-03-10T12:54:51.239Z,99265.86
2019-03-10T12:57:22.497Z,99260.44
2019-03-10T12:59:53.794Z,99248.17
2019-03-10T13:02:25.155Z,99266.97
2019-03-10T13:04:57.556Z,99218.95
2019-03-10T13:07:28.796Z,99265.17
2019-03-10T13:10:00.334Z,99263.75
2019-03-10T13:12:40.392Z,99326.12
2019-03-10T13:15:13.384Z,99265.39
2019-03-10T13:17:44.978Z,99348.90
2019-03-10T13:20:27.523Z,99300.77
2019-03-10T13:22:49.499Z,99285.27
2019-03-10T13:25:20.854Z,99287.22
2019-03-10T13:27:56.137Z,99311.74
2019-03-10T13:30:27.462Z,99290.69
2019-03-10T13:32:58.838Z,99281.23
2019-03-10T13:35:30.757Z,99342.53
2019-03-10T13:38:10.567Z,99331.41
2019-03-10T13:40:41.603Z,99356.00
2019-03-10T13:43:12.841Z,99339.23
2019-03-10T13:45:46.591Z,99336.52
2019-03-10T13:48:17.833Z,99360.92
2019-03-10T13:50:49.322Z,99346.72
2019-03-10T13:53:20.541Z,99354.03
2019-03-10T13:55:52.975Z,99360.17
2019-03-10T13:58:24.326Z,99363.67
2019-03-10T14:00:56.573Z,99360.39
2019-03-10T14:03:27.876Z,99375.11
2019-03-10T14:05:59.237Z,99397.25
2019-03-10T14:08:30.736Z,99405.61
2019-03-10T14:11:02.048Z,99408.19
2019-03-10T14:13:33.351Z,99435.63
2019-03-10T14:16:11.255Z,99492.35
2019-03-10T14:18:48.463Z,99451.14
2019-03-10T14:21:20.437Z,99443.98
2019-03-10T14:23:51.751Z,99447.46
2019-03-10T14:26:23.143Z,99450.63
2019-03-10T14:29:14.181Z,99469.20
2019-03-10T14:31:45.451Z,99467.13
2019-03-10T14:34:16.970Z,99444.14
2019-03-10T14:36:48.463Z,99477.66
2019-03-10T14:39:19.693Z,99487.83
2019-03-10T14:41:51.140Z,99499.05
2019-03-10T14:44:22.821Z,99487.37
2019-03-10T14:46:54.882Z,99542.87
2019-03-10T14:49:26.232Z,99525.70
2019-03-10T14:51:57.626Z,99531.66
2019-03-10T14:54:28.902Z,99541.98
2019-03-10T14:57:02.556Z,99507.22
2019-03-10T14:59:33.279Z,99526.45
2019-03-10T15:02:04.875Z,99544.52
2019-03-10T15:04:36.257Z,99558.61
2019-03-10T15:07:07.627Z,99546.44
2019-03-10T15:09:38.858Z,99575.16
2019-03-10T15:12:11.262Z,99561.22
2019-03-10T15:14:42.494Z,99598.36
2019-03-10T15:17:13.793Z,99579.78
2019-03-10T15:19:46.173Z,99608.01
2019-03-10T15:22:17.469Z,99619.09
2019-03-10T15:24:48.815Z,99597.37
2019-03-10T15:27:23.548Z,99622.69
2019-03-10T15:29:53.907Z,99651.06
2019-03-10T15:32:25.505Z,99616.22
2019-03-10T15:34:56.722Z,99643.41
2019-03-10T15:37:28.064Z,99657.18
2019-03-10T15:39:59.311Z,99625.84
2019-03-10T15:42:30.963Z,99625.36
2019-03-10T15:45:02.231Z,99629.37
2019-03-10T15:47:35.161Z,99671.59
2019-03-10T15:50:19.256Z,99670.56
2019-03-10T15:52:50.604Z,99662.28
2019-03-10T15:55:21.992Z,99708.05
2019-03-10T15:57:53.413Z,99685.94
2019-03-10T16:00:28.903Z,99728.39
2019-03-10T16:03:01.430Z,99714.44
2019-03-10T16:05:33.188Z,99786.70
2019-03-10T16:08:08.773Z,99801.03
2019-03-10T16:10:40.504Z,99730.05
2019-03-10T16:13:12.027Z,99736.84
2019-03-10T16:15:43.523Z,99758.00
2019-03-10T16:18:14.888Z,99807.91
2019-03-10T16:20:46.609Z,99761.11
2019-03-10T16:23:19.413Z,99750.09
2019-03-10T16:25:51.588Z,99755.50
2019-03-10T16:28:24.419Z,99803.73
2019-03-10T16:30:56.011Z,99778.61
2019-03-10T16:33:27.720Z,99784.80
2019-03-10T16:35:59.246Z,99806.46
2019-03-10T16:38:32.937Z,99856.37
2019-03-10T16:41:04.486Z,99797.23
2019-03-10T16:43:36.128Z,99820.67
2019-03-10T16:46:07.821Z,99839.66
2019-03-10T16:48:41.354Z,99844.55
2019-03-10T16:51:12.967Z,99810.12
2019-03-10T16:53:44.856Z,99840.16
2019-03-10T16:56:16.689Z,99842.82
2019-03-10T16:58:48.192Z,99840.63
2019-03-10T17:01:20.906Z,99840.66
2019-03-10T17:03:52.400Z,99863.59
2019-03-10T17:06:23.957Z,99848.61
2019-03-10T17:08:55.924Z,99871.09
2019-03-10T17:11:27.770Z,99867.56
2019-03-10T17:14:04.002Z,99882.15
2019-03-10T17:16:35.540Z,99893.63
2019-03-10T17:19:09.442Z,99882.16
2019-03-10T17:21:42.055Z,99920.98
2019-03-10T17:24:13.336Z,99912.17
2019-03-10T17:26:48.055Z,99916.14
2019-03-10T17:29:21.142Z,99943.51
2019-03-10T17:31:54.601Z,99943.96
2019-03-10T17:34:26.547Z,99971.77
2019-03-10T17:37:06.221Z,99985.87
2019-03-10T17:39:43.702Z,99999.98
2019-03-10T17:42:16.009Z,99987.20
2019-03-10T17:44:48.731Z,100024.63
2019-03-10T17:47:19.973Z,100028.14
2019-03-10T17:49:51.469Z,100047.95
2019-03-10T17:52:22.928Z,100009.98
2019-03-10T17:54:54.596Z,100009.06
2019-03-10T17:57:25.984Z,100054.34
2019-03-10T17:59:57.649Z,100111.53
2019-03-10T18:02:28.978Z,100063.94
2019-03-10T18:05:00.380Z,100074.91
2019-03-10T18:07:31.925Z,100067.81
2019-03-10T18:10:03.533Z,100090.21
2019-03-10T18:12:35.085Z,100089.31
2019-03-10T18:15:10.534Z,100100.69
2019-03-10T18:17:42.281Z,100127.95
2019-03-10T18:20:22.936Z,100126.16
2019-03-10T18:22:55.280Z,100141.95
2019-03-10T18:25:26.910Z,100123.42
2019-03-10T18:27:58.357Z,100139.22
2019-03-10T18:30:29.955Z,100140.97
2019-03-10T18:33:02.144Z,100147.09
2019-03-10T18:35:33.502Z,100148.80
2019-03-10T18:38:06.363Z,100147.47
2019-03-10T18:40:37.814Z,100136.41
2019-03-10T18:43:09.119Z,100154.45
2019-03-10T18:45:42.093Z,100214.18
2019-03-10T18:48:13.660Z,100183.44
2019-03-10T18:50:45.213Z,100177.23
2019-03-10T18:53:16.766Z,100175.39
2019-03-10T18:55:48.427Z,100175.30
2019-03-10T18:58:20.230Z,100185.89
2019-03-10T19:00:52.875Z,100208.24
2019-03-10T19:03:24.175Z,100194.22
2019-03-10T19:05:55.834Z,100212.70
2019-03-10T19:08:29.330Z,100209.55
2019-03-10T19:11:00.984Z,100216.06
2019-03-10T19:13:32.481Z,100234.47
2019-03-10T19:16:03.982Z,100234.38
2019-03-10T19:18:35.386Z,100232.66
2019-03-10T19:21:06.952Z,100233.87
2019-03-10T19:23:38.432Z,100284.73
2019-03-10T19:26:11.361Z,100282.55
2019-03-10T19:28:43.120Z,100271.94
2019-03-10T19:31:15.623Z,100312.34
2019-03-10T19:33:47.406Z,100296.95
2019-03-10T19:36:20.729Z,100289.05
2019-03-10T19:38:52.356Z,100304.38
2019-03-10T19:41:24.973Z,100307.52
2019-03-10T19:43:56.809Z,100324.63
2019-03-10T19:46:28.643Z,100336.49
2019-03-10T19:49:06.963Z,100333.04
2019-03-10T19:51:39.048Z,100362.90
2019-03-10T19:54:14.825Z,100345.79
2019-03-10T19:56:46.736Z,100347.52
2019-03-10T19:59:19.596Z,100358.03
2019-03-10T20:01:58.984Z,100377.38
2019-03-10T20:04:30.791Z,100385.73
2019-03-10T20:07:05.054Z,100401.08
2019-03-10T20:09:37.381Z,100407.56
2019-03-10T20:12:09.434Z,100401.76
2019-03-10T20:14:41.311Z,100417.57
2019-03-10T20:17:13.161Z,100436.94
2019-03-10T20:19:45.705Z,100447.39
2019-03-10T20:22:17.646Z,100440.30
2019-03-10T20:24:49.149Z,100441.16
2019-03-10T20:27:22.047Z,100455.68
2019-03-10T20:29:53.725Z,100459.52
2019-03-10T20:32:44.098Z,100464.62
2019-03-10T20:35:17.357Z,100476.02
2019-03-10T20:37:48.962Z,100462.87
2019-03-10T20:40:27.581Z,100452.36
2019-03-10T20:42:59.947Z,100463.64
2019-03-10T20:45:31.377Z,100453.36
2019-03-10T20:48:03.177Z,100472.59
2019-03-10T20:50:35.091Z,100478.63
2019-03-10T20:53:07.244Z,100484.20
2019-03-10T20:55:38.610Z,100485.86
2019-03-10T20:58:11.433Z,100475.76
2019-03-10T21:00:43.922Z,100505.05
2019-03-10T21:03:15.230Z,100497.58
2019-03-10T21:05:52.864Z,100514.23
2019-03-10T21:08:25.357Z,100512.39
2019-03-10T21:10:56.736Z,100518.95
2019-03-10T21:13:28.050Z,100519.11
2019-03-10T21:15:59.494Z,100526.08
2019-03-10T21:18:31.452Z,100518.48
2019-03-10T21:21:03.196Z,100521.14
2019-03-10T21:23:34.452Z,100522.78
2019-03-10T21:26:05.853Z,100538.08
2019-03-10T21:28:37.158Z,100525.34
2019-03-10T21:31:08.528Z,100535.80
2019-03-10T21:33:40.002Z,100544.02
2019-03-10T21:36:11.645Z,100536.88
2019-03-10T21:38:43.056Z,100546.01
2019-03-10T21:41:15.221Z,100561.76
2019-03-10T21:43:46.665Z,100548.11
2019-03-10T21:46:18.966Z,100569.89
2019-03-10T21:48:50.394Z,100552.80
2019-03-10T21:51:21.615Z,100567.77
2019-03-10T21:53:53.002Z,100569.47
2019-03-10T21:56:24.365Z,100569.08
2019-03-10T21:58:56.407Z,100558.98
2019-03-10T22:01:27.784Z,100585.67
2019-03-10T22:03:59.148Z,100592.33
2019-03-10T22:06:31.419Z,100581.73
2019-03-10T22:09:04.621Z,100575.08
2019-03-10T22:11:37.767Z,100582.04
2019-03-10T22:14:09.140Z,100590.40
2019-03-10T22:16:40.417Z,100573.45
2019-03-10T22:19:21.981Z,100591.13
2019-03-10T22:21:44.726Z,100589.23
2019-03-10T22:24:16.096Z,100613.25
2019-03-10T22:26:47.381Z,100599.45
2019-03-10T22:29:18.635Z,100591.48
2019-03-10T22:31:50.043Z,100602.55
2019-03-10T22:34:21.477Z,100616.63
2019-03-10T22:36:52.698Z,100602.16
2019-03-10T22:39:24.075Z,100610.31
2019-03-10T22:41:55.432Z,100615.08
2019-03-10T22:44:26.657Z,100599.52
2019-03-10T22:46:57.888Z,100620.52
2019-03-10T22:49:30.890Z,100608.10
2019-03-10T22:52:02.118Z,100616.49
2019-03-10T22:54:33.619Z,100616.58
2019-03-10T22:57:04.872Z,100623.58
2019-03-10T22:59:36.239Z,100614.59
2019-03-10T23:02:07.588Z,100634.19
2019-03-10T23:04:38.937Z,100624.91
2019-03-10T23:07:10.241Z,100623.89
2019-03-10T23:09:41.528Z,100643.95
2019-03-10T23:12:12.732Z,100640.59
2019-03-10T23:14:45.099Z,100637.42
2019-03-10T23:17:16.454Z,100625.93
2019-03-10T23:19:50.961Z,100645.77
2019-03-10T23:22:22.255Z,100632.67
2019-03-10T23:24:53.527Z,100646.19
2019-03-10T23:27:24.894Z,100642.67
2019-03-10T23:29:56.166Z,100645.98
2019-03-10T23:32:27.459Z,100653.95
2019-03-10T23:34:58.832Z,100665.65
2019-03-10T23:37:30.100Z,100653.19
2019-03-10T23:40:01.473Z,100658.73
2019-03-10T23:42:56.508Z,100654.84
2019-03-10T23:45:27.804Z,100660.89
2019-03-10T23:47:59.079Z,100665.97
2019-03-10T23:50:30.424Z,100664.53
2019-03-10T23:53:01.707Z,100658.26
2019-03-10T23:55:32.996Z,100653.05
2019-03-10T23:58:04.535Z,100649.06
